sensor_id;sensor_type;location;lat;lon;timestamp;P1;durP1;ratioP1;P2;durP2;ratioP2
5416;SDS011;2731;50.754;12.990;2023-03-11T00:00:26;4.07;;;2.00;;
5416;SDS011;2731;50.754;12.990;2023-03-11T00:02:56;2.92;;;2.08;;
5416;SDS011;2731;50.754;12.990;2023-03-11T00:05:29;3.00;;;2.33;;
5416;SDS011;2731;50.754;12.990;2023-03-11T00:07:57;3.25;;;2.08;;
5416;SDS011;2731;50.754;12.990;2023-03-11T00:10:27;4.80;;;2.30;;
5416;SDS011;2731;50.754;12.990;2023-03-11T00:12:55;2.65;;;2.03;;
5416;SDS011;2731;50.754;12.990;2023-03-11T00:15:24;4.57;;;2.20;;
5416;SDS011;2731;50.754;12.990;2023-03-11T00:17:53;2.85;;;2.15;;
5416;SDS011;2731;50.754;12.990;2023-03-11T00:20:25;3.70;;;2.78;;
5416;SDS011;2731;50.754;12.990;2023-03-11T00:22:55;2.83;;;1.90;;
5416;SDS011;2731;50.754;12.990;2023-03-11T00:25:27;4.40;;;2.35;;
5416;SDS011;2731;50.754;12.990;2023-03-11T00:27:54;2.38;;;1.67;;
5416;SDS011;2731;50.754;12.990;2023-03-11T00:30:22;2.60;;;2.30;;
5416;SDS011;2731;50.754;12.990;2023-03-11T00:32:50;3.15;;;2.35;;
5416;SDS011;2731;50.754;12.990;2023-03-11T00:35:18;4.43;;;3.28;;
5416;SDS011;2731;50.754;12.990;2023-03-11T00:37:47;4.63;;;2.47;;
5416;SDS011;2731;50.754;12.990;2023-03-11T00:40:13;3.92;;;2.58;;
5416;SDS011;2731;50.754;12.990;2023-03-11T00:42:41;4.25;;;2.55;;
5416;SDS011;2731;50.754;12.990;2023-03-11T00:45:08;3.53;;;2.40;;
5416;SDS011;2731;50.754;12.990;2023-03-11T00:47:37;4.15;;;3.08;;
5416;SDS011;2731;50.754;12.990;2023-03-11T00:50:06;4.15;;;3.00;;
5416;SDS011;2731;50.754;12.990;2023-03-11T00:52:33;4.68;;;3.05;;
5416;SDS011;2731;50.754;12.990;2023-03-11T00:55:01;5.68;;;3.47;;
5416;SDS011;2731;50.754;12.990;2023-03-11T00:57:29;4.53;;;2.95;;
5416;SDS011;2731;50.754;12.990;2023-03-11T00:59:55;4.30;;;3.15;;
5416;SDS011;2731;50.754;12.990;2023-03-11T01:02:21;5.25;;;3.25;;
5416;SDS011;2731;50.754;12.990;2023-03-11T01:04:52;5.45;;;3.33;;
5416;SDS011;2731;50.754;12.990;2023-03-11T01:09:48;5.00;;;3.50;;
5416;SDS011;2731;50.754;12.990;2023-03-11T01:12:16;5.68;;;3.55;;
5416;SDS011;2731;50.754;12.990;2023-03-11T01:14:44;6.20;;;3.80;;
5416;SDS011;2731;50.754;12.990;2023-03-11T01:17:10;5.55;;;3.85;;
5416;SDS011;2731;50.754;12.990;2023-03-11T01:19:41;6.30;;;3.78;;
5416;SDS011;2731;50.754;12.990;2023-03-11T01:22:09;6.88;;;4.10;;
5416;SDS011;2731;50.754;12.990;2023-03-11T01:24:37;6.75;;;4.60;;
5416;SDS011;2731;50.754;12.990;2023-03-11T01:27:05;7.18;;;4.57;;
5416;SDS011;2731;50.754;12.990;2023-03-11T01:29:31;8.18;;;5.15;;
5416;SDS011;2731;50.754;12.990;2023-03-11T01:32:00;9.38;;;5.95;;
5416;SDS011;2731;50.754;12.990;2023-03-11T01:34:28;9.27;;;4.93;;
5416;SDS011;2731;50.754;12.990;2023-03-11T01:36:55;10.02;;;5.55;;
5416;SDS011;2731;50.754;12.990;2023-03-11T01:39:23;7.47;;;5.00;;
5416;SDS011;2731;50.754;12.990;2023-03-11T01:41:52;7.70;;;5.00;;
5416;SDS011;2731;50.754;12.990;2023-03-11T01:44:29;7.40;;;4.50;;
5416;SDS011;2731;50.754;12.990;2023-03-11T01:49:27;9.52;;;4.38;;
5416;SDS011;2731;50.754;12.990;2023-03-11T01:51:56;7.47;;;4.47;;
5416;SDS011;2731;50.754;12.990;2023-03-11T01:54:26;6.53;;;3.72;;
5416;SDS011;2731;50.754;12.990;2023-03-11T01:56:54;8.07;;;4.88;;
5416;SDS011;2731;50.754;12.990;2023-03-11T01:59:23;7.93;;;4.38;;
5416;SDS011;2731;50.754;12.990;2023-03-11T02:04:35;6.28;;;3.58;;
5416;SDS011;2731;50.754;12.990;2023-03-11T02:07:03;7.15;;;3.10;;
5416;SDS011;2731;50.754;12.990;2023-03-11T02:09:30;5.32;;;3.42;;
5416;SDS011;2731;50.754;12.990;2023-03-11T02:11:57;6.25;;;3.40;;
5416;SDS011;2731;50.754;12.990;2023-03-11T02:14:25;5.63;;;3.22;;
5416;SDS011;2731;50.754;12.990;2023-03-11T02:16:53;5.00;;;3.10;;
5416;SDS011;2731;50.754;12.990;2023-03-11T02:21:56;8.05;;;3.88;;
5416;SDS011;2731;50.754;12.990;2023-03-11T02:27:10;6.80;;;4.00;;
5416;SDS011;2731;50.754;12.990;2023-03-11T02:29:39;5.18;;;3.72;;
5416;SDS011;2731;50.754;12.990;2023-03-11T02:32:08;7.75;;;3.45;;
5416;SDS011;2731;50.754;12.990;2023-03-11T02:34:38;7.22;;;4.10;;
5416;SDS011;2731;50.754;12.990;2023-03-11T02:37:08;6.80;;;4.55;;
5416;SDS011;2731;50.754;12.990;2023-03-11T02:39:39;7.47;;;3.75;;
5416;SDS011;2731;50.754;12.990;2023-03-11T02:42:29;6.43;;;3.42;;
5416;SDS011;2731;50.754;12.990;2023-03-11T02:45:13;6.65;;;4.22;;
5416;SDS011;2731;50.754;12.990;2023-03-11T02:47:43;6.38;;;4.07;;
5416;SDS011;2731;50.754;12.990;2023-03-11T02:50:11;5.93;;;3.85;;
5416;SDS011;2731;50.754;12.990;2023-03-11T02:52:41;6.60;;;4.03;;
5416;SDS011;2731;50.754;12.990;2023-03-11T02:55:09;8.85;;;5.40;;
5416;SDS011;2731;50.754;12.990;2023-03-11T02:57:36;7.57;;;4.72;;
5416;SDS011;2731;50.754;12.990;2023-03-11T03:00:03;8.25;;;5.25;;
5416;SDS011;2731;50.754;12.990;2023-03-11T03:02:36;6.93;;;4.28;;
5416;SDS011;2731;50.754;12.990;2023-03-11T03:05:05;8.07;;;4.85;;
5416;SDS011;2731;50.754;12.990;2023-03-11T03:07:33;8.23;;;5.03;;
5416;SDS011;2731;50.754;12.990;2023-03-11T03:10:00;7.40;;;4.13;;
5416;SDS011;2731;50.754;12.990;2023-03-11T03:12:29;10.15;;;4.75;;
5416;SDS011;2731;50.754;12.990;2023-03-11T03:14:56;8.25;;;4.57;;
5416;SDS011;2731;50.754;12.990;2023-03-11T03:17:24;9.00;;;4.57;;
5416;SDS011;2731;50.754;12.990;2023-03-11T03:19:51;6.00;;;4.18;;
5416;SDS011;2731;50.754;12.990;2023-03-11T03:22:20;9.77;;;4.70;;
5416;SDS011;2731;50.754;12.990;2023-03-11T03:24:49;7.68;;;5.00;;
5416;SDS011;2731;50.754;12.990;2023-03-11T03:27:19;8.55;;;4.85;;
5416;SDS011;2731;50.754;12.990;2023-03-11T03:29:47;6.45;;;4.28;;
5416;SDS011;2731;50.754;12.990;2023-03-11T03:32:16;7.35;;;4.38;;
5416;SDS011;2731;50.754;12.990;2023-03-11T03:34:45;7.63;;;4.43;;
5416;SDS011;2731;50.754;12.990;2023-03-11T03:37:13;8.00;;;4.60;;
5416;SDS011;2731;50.754;12.990;2023-03-11T03:39:40;7.70;;;5.00;;
5416;SDS011;2731;50.754;12.990;2023-03-11T03:42:06;9.05;;;4.95;;
5416;SDS011;2731;50.754;12.990;2023-03-11T03:44:32;10.20;;;5.78;;
5416;SDS011;2731;50.754;12.990;2023-03-11T03:47:00;7.22;;;4.35;;
5416;SDS011;2731;50.754;12.990;2023-03-11T03:49:29;7.80;;;4.68;;
5416;SDS011;2731;50.754;12.990;2023-03-11T03:51:57;7.38;;;4.65;;
5416;SDS011;2731;50.754;12.990;2023-03-11T03:54:24;7.93;;;4.75;;
5416;SDS011;2731;50.754;12.990;2023-03-11T03:56:51;8.48;;;4.70;;
5416;SDS011;2731;50.754;12.990;2023-03-11T03:59:20;9.13;;;5.30;;
5416;SDS011;2731;50.754;12.990;2023-03-11T04:01:47;10.55;;;4.45;;
5416;SDS011;2731;50.754;12.990;2023-03-11T04:04:13;7.05;;;4.38;;
5416;SDS011;2731;50.754;12.990;2023-03-11T04:06:40;7.35;;;4.45;;
5416;SDS011;2731;50.754;12.990;2023-03-11T04:09:08;7.88;;;4.43;;
5416;SDS011;2731;50.754;12.990;2023-03-11T04:11:36;6.75;;;4.82;;
5416;SDS011;2731;50.754;12.990;2023-03-11T04:14:04;8.70;;;5.43;;
5416;SDS011;2731;50.754;12.990;2023-03-11T04:16:31;8.73;;;4.65;;
5416;SDS011;2731;50.754;12.990;2023-03-11T04:18:57;8.05;;;4.82;;
5416;SDS011;2731;50.754;12.990;2023-03-11T04:21:26;8.68;;;4.70;;
5416;SDS011;2731;50.754;12.990;2023-03-11T04:23:53;6.97;;;4.13;;
5416;SDS011;2731;50.754;12.990;2023-03-11T04:26:21;8.82;;;4.43;;
5416;SDS011;2731;50.754;12.990;2023-03-11T04:28:48;8.55;;;4.45;;
5416;SDS011;2731;50.754;12.990;2023-03-11T04:31:16;7.45;;;4.45;;
5416;SDS011;2731;50.754;12.990;2023-03-11T04:33:46;8.20;;;5.03;;
5416;SDS011;2731;50.754;12.990;2023-03-11T04:36:15;8.90;;;4.70;;
5416;SDS011;2731;50.754;12.990;2023-03-11T04:38:42;6.57;;;4.20;;
5416;SDS011;2731;50.754;12.990;2023-03-11T04:41:11;8.00;;;4.45;;
5416;SDS011;2731;50.754;12.990;2023-03-11T04:43:38;7.40;;;4.47;;
5416;SDS011;2731;50.754;12.990;2023-03-11T04:46:06;6.97;;;3.83;;
5416;SDS011;2731;50.754;12.990;2023-03-11T04:48:33;8.05;;;4.28;;
5416;SDS011;2731;50.754;12.990;2023-03-11T04:51:02;8.43;;;4.43;;
5416;SDS011;2731;50.754;12.990;2023-03-11T04:53:30;8.63;;;5.25;;
5416;SDS011;2731;50.754;12.990;2023-03-11T04:55:57;8.60;;;4.88;;
5416;SDS011;2731;50.754;12.990;2023-03-11T04:58:26;7.95;;;5.13;;
5416;SDS011;2731;50.754;12.990;2023-03-11T05:00:53;9.32;;;5.10;;
5416;SDS011;2731;50.754;12.990;2023-03-11T05:03:21;10.52;;;5.93;;
5416;SDS011;2731;50.754;12.990;2023-03-11T05:05:49;9.40;;;5.32;;
5416;SDS011;2731;50.754;12.990;2023-03-11T05:08:22;8.43;;;5.30;;
5416;SDS011;2731;50.754;12.990;2023-03-11T05:10:51;10.20;;;5.55;;
5416;SDS011;2731;50.754;12.990;2023-03-11T05:13:20;7.78;;;5.10;;
5416;SDS011;2731;50.754;12.990;2023-03-11T05:15:49;10.90;;;7.20;;
5416;SDS011;2731;50.754;12.990;2023-03-11T05:18:16;11.32;;;6.88;;
5416;SDS011;2731;50.754;12.990;2023-03-11T05:20:44;9.48;;;5.63;;
5416;SDS011;2731;50.754;12.990;2023-03-11T05:23:12;11.95;;;6.28;;
5416;SDS011;2731;50.754;12.990;2023-03-11T05:25:42;10.45;;;6.35;;
5416;SDS011;2731;50.754;12.990;2023-03-11T05:28:10;10.07;;;5.63;;
5416;SDS011;2731;50.754;12.990;2023-03-11T05:30:37;10.40;;;5.53;;
5416;SDS011;2731;50.754;12.990;2023-03-11T05:33:06;10.23;;;5.78;;
5416;SDS011;2731;50.754;12.990;2023-03-11T05:35:34;10.73;;;5.60;;
5416;SDS011;2731;50.754;12.990;2023-03-11T05:38:01;9.65;;;5.15;;
5416;SDS011;2731;50.754;12.990;2023-03-11T05:40:29;8.80;;;5.47;;
5416;SDS011;2731;50.754;12.990;2023-03-11T05:42:56;8.85;;;4.93;;
5416;SDS011;2731;50.754;12.990;2023-03-11T05:45:23;9.07;;;4.80;;
5416;SDS011;2731;50.754;12.990;2023-03-11T05:47:53;9.63;;;5.07;;
5416;SDS011;2731;50.754;12.990;2023-03-11T05:50:20;8.50;;;4.82;;
5416;SDS011;2731;50.754;12.990;2023-03-11T05:52:46;8.63;;;4.68;;
5416;SDS011;2731;50.754;12.990;2023-03-11T05:55:15;5.55;;;3.75;;
5416;SDS011;2731;50.754;12.990;2023-03-11T05:57:41;10.15;;;4.55;;
5416;SDS011;2731;50.754;12.990;2023-03-11T06:00:09;8.85;;;4.50;;
5416;SDS011;2731;50.754;12.990;2023-03-11T06:02:36;7.50;;;4.78;;
5416;SDS011;2731;50.754;12.990;2023-03-11T06:05:04;7.43;;;4.82;;
5416;SDS011;2731;50.754;12.990;2023-03-11T06:07:33;12.48;;;6.20;;
5416;SDS011;2731;50.754;12.990;2023-03-11T06:10:00;8.63;;;5.20;;
5416;SDS011;2731;50.754;12.990;2023-03-11T06:12:27;9.85;;;5.85;;
5416;SDS011;2731;50.754;12.990;2023-03-11T06:14:55;10.65;;;5.40;;
5416;SDS011;2731;50.754;12.990;2023-03-11T06:17:24;9.38;;;5.32;;
5416;SDS011;2731;50.754;12.990;2023-03-11T06:19:51;10.00;;;5.05;;
5416;SDS011;2731;50.754;12.990;2023-03-11T06:22:18;8.63;;;5.35;;
5416;SDS011;2731;50.754;12.990;2023-03-11T06:24:47;8.55;;;4.95;;
5416;SDS011;2731;50.754;12.990;2023-03-11T06:27:14;8.68;;;4.68;;
5416;SDS011;2731;50.754;12.990;2023-03-11T06:29:41;8.63;;;5.10;;
5416;SDS011;2731;50.754;12.990;2023-03-11T06:32:07;8.93;;;4.80;;
5416;SDS011;2731;50.754;12.990;2023-03-11T06:34:35;9.48;;;5.25;;
5416;SDS011;2731;50.754;12.990;2023-03-11T06:37:03;9.52;;;5.70;;
5416;SDS011;2731;50.754;12.990;2023-03-11T06:39:31;8.45;;;5.30;;
5416;SDS011;2731;50.754;12.990;2023-03-11T06:41:59;9.10;;;4.50;;
5416;SDS011;2731;50.754;12.990;2023-03-11T06:44:27;9.25;;;5.47;;
5416;SDS011;2731;50.754;12.990;2023-03-11T06:46:56;6.13;;;3.67;;
5416;SDS011;2731;50.754;12.990;2023-03-11T06:49:22;6.55;;;3.90;;
5416;SDS011;2731;50.754;12.990;2023-03-11T06:51:50;8.40;;;4.28;;
5416;SDS011;2731;50.754;12.990;2023-03-11T06:54:16;9.93;;;5.07;;
5416;SDS011;2731;50.754;12.990;2023-03-11T06:56:44;7.18;;;3.92;;
5416;SDS011;2731;50.754;12.990;2023-03-11T06:59:12;11.98;;;4.15;;
5416;SDS011;2731;50.754;12.990;2023-03-11T07:01:39;5.75;;;3.70;;
5416;SDS011;2731;50.754;12.990;2023-03-11T07:04:08;8.80;;;4.30;;
5416;SDS011;2731;50.754;12.990;2023-03-11T07:06:35;6.97;;;3.63;;
5416;SDS011;2731;50.754;12.990;2023-03-11T07:09:03;5.72;;;3.75;;
5416;SDS011;2731;50.754;12.990;2023-03-11T07:11:30;6.28;;;3.85;;
5416;SDS011;2731;50.754;12.990;2023-03-11T07:13:57;8.88;;;4.22;;
5416;SDS011;2731;50.754;12.990;2023-03-11T07:16:28;7.75;;;3.83;;
5416;SDS011;2731;50.754;12.990;2023-03-11T07:18:58;5.50;;;2.90;;
5416;SDS011;2731;50.754;12.990;2023-03-11T07:21:29;7.00;;;3.83;;
5416;SDS011;2731;50.754;12.990;2023-03-11T07:23:58;5.45;;;3.40;;
5416;SDS011;2731;50.754;12.990;2023-03-11T07:26:26;5.03;;;3.13;;
5416;SDS011;2731;50.754;12.990;2023-03-11T07:28:54;5.38;;;3.10;;
5416;SDS011;2731;50.754;12.990;2023-03-11T07:31:31;5.47;;;2.40;;
5416;SDS011;2731;50.754;12.990;2023-03-11T07:34:00;8.63;;;3.03;;
5416;SDS011;2731;50.754;12.990;2023-03-11T07:36:27;6.50;;;3.17;;
5416;SDS011;2731;50.754;12.990;2023-03-11T07:38:55;6.97;;;3.05;;
5416;SDS011;2731;50.754;12.990;2023-03-11T07:41:24;6.03;;;3.72;;
5416;SDS011;2731;50.754;12.990;2023-03-11T07:44:03;5.97;;;3.30;;
5416;SDS011;2731;50.754;12.990;2023-03-11T07:46:30;4.85;;;3.03;;
5416;SDS011;2731;50.754;12.990;2023-03-11T07:48:57;7.70;;;3.45;;
5416;SDS011;2731;50.754;12.990;2023-03-11T07:51:28;8.60;;;3.35;;
5416;SDS011;2731;50.754;12.990;2023-03-11T07:53:56;6.15;;;3.33;;
5416;SDS011;2731;50.754;12.990;2023-03-11T07:56:24;6.35;;;3.97;;
5416;SDS011;2731;50.754;12.990;2023-03-11T07:58:52;6.53;;;3.03;;
5416;SDS011;2731;50.754;12.990;2023-03-11T08:01:19;5.60;;;2.85;;
5416;SDS011;2731;50.754;12.990;2023-03-11T08:03:49;7.03;;;3.13;;
5416;SDS011;2731;50.754;12.990;2023-03-11T08:06:23;5.68;;;3.28;;
5416;SDS011;2731;50.754;12.990;2023-03-11T08:08:51;6.65;;;3.15;;
5416;SDS011;2731;50.754;12.990;2023-03-11T08:11:17;4.40;;;2.67;;
5416;SDS011;2731;50.754;12.990;2023-03-11T08:13:46;4.55;;;2.88;;
5416;SDS011;2731;50.754;12.990;2023-03-11T08:16:14;5.53;;;2.75;;
5416;SDS011;2731;50.754;12.990;2023-03-11T08:18:41;6.60;;;2.65;;
5416;SDS011;2731;50.754;12.990;2023-03-11T08:21:15;4.55;;;3.25;;
5416;SDS011;2731;50.754;12.990;2023-03-11T08:23:55;5.07;;;3.17;;
5416;SDS011;2731;50.754;12.990;2023-03-11T08:26:26;5.32;;;3.08;;
5416;SDS011;2731;50.754;12.990;2023-03-11T08:28:54;7.82;;;3.45;;
5416;SDS011;2731;50.754;12.990;2023-03-11T08:31:22;6.20;;;3.67;;
5416;SDS011;2731;50.754;12.990;2023-03-11T08:33:50;5.45;;;2.88;;
5416;SDS011;2731;50.754;12.990;2023-03-11T08:36:18;6.03;;;3.05;;
5416;SDS011;2731;50.754;12.990;2023-03-11T08:38:46;7.32;;;3.67;;
5416;SDS011;2731;50.754;12.990;2023-03-11T08:41:15;4.80;;;3.00;;
5416;SDS011;2731;50.754;12.990;2023-03-11T08:43:42;6.75;;;3.85;;
5416;SDS011;2731;50.754;12.990;2023-03-11T08:46:09;6.95;;;3.40;;
5416;SDS011;2731;50.754;12.990;2023-03-11T08:48:39;10.50;;;4.53;;
5416;SDS011;2731;50.754;12.990;2023-03-11T08:51:10;6.28;;;3.50;;
5416;SDS011;2731;50.754;12.990;2023-03-11T08:53:36;10.88;;;4.40;;
5416;SDS011;2731;50.754;12.990;2023-03-11T08:56:04;8.27;;;3.97;;
5416;SDS011;2731;50.754;12.990;2023-03-11T08:58:30;4.43;;;3.30;;
5416;SDS011;2731;50.754;12.990;2023-03-11T09:00:58;6.53;;;3.90;;
5416;SDS011;2731;50.754;12.990;2023-03-11T09:03:26;5.65;;;3.40;;
5416;SDS011;2731;50.754;12.990;2023-03-11T09:05:57;5.22;;;3.05;;
5416;SDS011;2731;50.754;12.990;2023-03-11T09:08:35;6.57;;;3.40;;
5416;SDS011;2731;50.754;12.990;2023-03-11T09:11:02;8.77;;;3.20;;
5416;SDS011;2731;50.754;12.990;2023-03-11T09:13:34;8.95;;;3.83;;
5416;SDS011;2731;50.754;12.990;2023-03-11T09:16:04;9.02;;;4.22;;
5416;SDS011;2731;50.754;12.990;2023-03-11T09:18:32;7.85;;;4.45;;
5416;SDS011;2731;50.754;12.990;2023-03-11T09:20:59;10.38;;;4.88;;
5416;SDS011;2731;50.754;12.990;2023-03-11T09:23:27;8.75;;;4.13;;
5416;SDS011;2731;50.754;12.990;2023-03-11T09:25:55;8.38;;;4.47;;
5416;SDS011;2731;50.754;12.990;2023-03-11T09:28:23;7.72;;;3.80;;
5416;SDS011;2731;50.754;12.990;2023-03-11T09:30:52;6.07;;;3.28;;
5416;SDS011;2731;50.754;12.990;2023-03-11T09:33:18;7.55;;;3.65;;
5416;SDS011;2731;50.754;12.990;2023-03-11T09:35:47;5.68;;;3.85;;
5416;SDS011;2731;50.754;12.990;2023-03-11T09:38:13;10.32;;;4.65;;
5416;SDS011;2731;50.754;12.990;2023-03-11T09:40:45;6.63;;;4.65;;
5416;SDS011;2731;50.754;12.990;2023-03-11T09:45:41;8.05;;;4.40;;
5416;SDS011;2731;50.754;12.990;2023-03-11T09:50:52;8.60;;;4.55;;
5416;SDS011;2731;50.754;12.990;2023-03-11T09:53:38;14.15;;;5.28;;
5416;SDS011;2731;50.754;12.990;2023-03-11T09:56:07;9.07;;;4.10;;
5416;SDS011;2731;50.754;12.990;2023-03-11T10:01:02;11.32;;;4.25;;
5416;SDS011;2731;50.754;12.990;2023-03-11T10:03:34;6.05;;;3.33;;
5416;SDS011;2731;50.754;12.990;2023-03-11T10:06:11;6.47;;;3.75;;
5416;SDS011;2731;50.754;12.990;2023-03-11T10:27:20;7.72;;;4.47;;
5416;SDS011;2731;50.754;12.990;2023-03-11T10:30:02;10.40;;;6.18;;
5416;SDS011;2731;50.754;12.990;2023-03-11T10:32:34;10.85;;;4.63;;
5416;SDS011;2731;50.754;12.990;2023-03-11T10:37:41;9.00;;;4.53;;
5416;SDS011;2731;50.754;12.990;2023-03-11T10:43:16;11.98;;;4.30;;
5416;SDS011;2731;50.754;12.990;2023-03-11T10:45:43;8.38;;;3.97;;
5416;SDS011;2731;50.754;12.990;2023-03-11T10:48:31;8.00;;;3.75;;
5416;SDS011;2731;50.754;12.990;2023-03-11T10:51:10;9.30;;;5.50;;
5416;SDS011;2731;50.754;12.990;2023-03-11T10:53:58;5.80;;;3.97;;
5416;SDS011;2731;50.754;12.990;2023-03-11T10:56:38;6.53;;;4.22;;
5416;SDS011;2731;50.754;12.990;2023-03-11T11:02:15;8.32;;;3.78;;
5416;SDS011;2731;50.754;12.990;2023-03-11T11:04:44;9.10;;;3.40;;
5416;SDS011;2731;50.754;12.990;2023-03-11T11:07:28;6.07;;;3.55;;
5416;SDS011;2731;50.754;12.990;2023-03-11T11:12:56;9.75;;;3.95;;
5416;SDS011;2731;50.754;12.990;2023-03-11T11:15:34;9.63;;;4.75;;
5416;SDS011;2731;50.754;12.990;2023-03-11T11:18:04;8.70;;;3.83;;
5416;SDS011;2731;50.754;12.990;2023-03-11T11:20:32;7.45;;;4.55;;
5416;SDS011;2731;50.754;12.990;2023-03-11T11:23:01;6.65;;;4.05;;
5416;SDS011;2731;50.754;12.990;2023-03-11T11:25:36;11.68;;;4.60;;
5416;SDS011;2731;50.754;12.990;2023-03-11T11:28:18;7.72;;;4.13;;
5416;SDS011;2731;50.754;12.990;2023-03-11T11:30:59;8.88;;;4.70;;
5416;SDS011;2731;50.754;12.990;2023-03-11T11:33:46;7.65;;;4.70;;
5416;SDS011;2731;50.754;12.990;2023-03-11T11:36:14;6.60;;;4.20;;
5416;SDS011;2731;50.754;12.990;2023-03-11T11:38:43;8.20;;;4.78;;
5416;SDS011;2731;50.754;12.990;2023-03-11T11:41:14;7.85;;;4.32;;
5416;SDS011;2731;50.754;12.990;2023-03-11T11:43:55;9.40;;;4.90;;
5416;SDS011;2731;50.754;12.990;2023-03-11T11:46:39;8.75;;;4.60;;
5416;SDS011;2731;50.754;12.990;2023-03-11T11:49:20;6.72;;;4.13;;
5416;SDS011;2731;50.754;12.990;2023-03-11T11:54:17;8.88;;;4.80;;
5416;SDS011;2731;50.754;12.990;2023-03-11T11:56:50;9.27;;;5.05;;
5416;SDS011;2731;50.754;12.990;2023-03-11T11:59:18;8.75;;;5.78;;
5416;SDS011;2731;50.754;12.990;2023-03-11T12:18:21;10.13;;;5.50;;
5416;SDS011;2731;50.754;12.990;2023-03-11T12:20:55;15.05;;;4.97;;
5416;SDS011;2731;50.754;12.990;2023-03-11T12:26:30;9.23;;;4.90;;
5416;SDS011;2731;50.754;12.990;2023-03-11T12:31:43;7.50;;;4.93;;
5416;SDS011;2731;50.754;12.990;2023-03-11T12:34:14;6.63;;;4.43;;
5416;SDS011;2731;50.754;12.990;2023-03-11T12:36:43;6.68;;;4.22;;
5416;SDS011;2731;50.754;12.990;2023-03-11T12:39:29;7.78;;;4.97;;
5416;SDS011;2731;50.754;12.990;2023-03-11T12:44:33;8.57;;;4.80;;
5416;SDS011;2731;50.754;12.990;2023-03-11T12:49:40;7.63;;;4.53;;
5416;SDS011;2731;50.754;12.990;2023-03-11T12:54:46;7.82;;;4.40;;
5416;SDS011;2731;50.754;12.990;2023-03-11T13:07:59;7.65;;;5.15;;
5416;SDS011;2731;50.754;12.990;2023-03-11T13:10:44;8.23;;;4.63;;
5416;SDS011;2731;50.754;12.990;2023-03-11T13:13:31;9.32;;;5.57;;
5416;SDS011;2731;50.754;12.990;2023-03-11T13:21:51;9.55;;;4.72;;
5416;SDS011;2731;50.754;12.990;2023-03-11T13:32:24;7.18;;;5.03;;
5416;SDS011;2731;50.754;12.990;2023-03-11T13:37:49;8.57;;;4.88;;
5416;SDS011;2731;50.754;12.990;2023-03-11T13:43:18;8.48;;;5.25;;
5416;SDS011;2731;50.754;12.990;2023-03-11T13:46:29;9.30;;;5.85;;
5416;SDS011;2731;50.754;12.990;2023-03-11T13:48:40;10.82;;;5.95;;
5416;SDS011;2731;50.754;12.990;2023-03-11T13:51:26;10.73;;;5.72;;
5416;SDS011;2731;50.754;12.990;2023-03-11T13:54:03;8.82;;;6.05;;
5416;SDS011;2731;50.754;12.990;2023-03-11T13:56:31;9.77;;;5.40;;
5416;SDS011;2731;50.754;12.990;2023-03-11T13:59:21;8.57;;;5.20;;
5416;SDS011;2731;50.754;12.990;2023-03-11T14:01:58;7.60;;;4.40;;
5416;SDS011;2731;50.754;12.990;2023-03-11T14:04:28;10.20;;;5.30;;
5416;SDS011;2731;50.754;12.990;2023-03-11T14:06:56;10.07;;;4.75;;
5416;SDS011;2731;50.754;12.990;2023-03-11T14:09:26;8.65;;;5.28;;
5416;SDS011;2731;50.754;12.990;2023-03-11T14:11:54;11.75;;;5.82;;
5416;SDS011;2731;50.754;12.990;2023-03-11T14:16:59;10.65;;;5.70;;
5416;SDS011;2731;50.754;12.990;2023-03-11T14:19:29;6.93;;;4.70;;
5416;SDS011;2731;50.754;12.990;2023-03-11T14:21:56;15.25;;;5.30;;
5416;SDS011;2731;50.754;12.990;2023-03-11T14:24:30;10.52;;;5.10;;
5416;SDS011;2731;50.754;12.990;2023-03-11T14:26:58;12.18;;;5.47;;
5416;SDS011;2731;50.754;12.990;2023-03-11T14:29:34;9.50;;;5.55;;
5416;SDS011;2731;50.754;12.990;2023-03-11T14:32:14;15.60;;;5.15;;
5416;SDS011;2731;50.754;12.990;2023-03-11T14:34:43;9.63;;;4.93;;
5416;SDS011;2731;50.754;12.990;2023-03-11T14:37:46;8.88;;;4.97;;
5416;SDS011;2731;50.754;12.990;2023-03-11T14:40:24;7.60;;;5.22;;
5416;SDS011;2731;50.754;12.990;2023-03-11T14:42:52;9.23;;;4.93;;
5416;SDS011;2731;50.754;12.990;2023-03-11T14:45:22;7.18;;;4.45;;
5416;SDS011;2731;50.754;12.990;2023-03-11T14:50:27;9.18;;;5.05;;
5416;SDS011;2731;50.754;12.990;2023-03-11T14:55:31;9.68;;;5.22;;
5416;SDS011;2731;50.754;12.990;2023-03-11T15:01:01;8.25;;;5.03;;
5416;SDS011;2731;50.754;12.990;2023-03-11T15:03:30;11.63;;;6.47;;
5416;SDS011;2731;50.754;12.990;2023-03-11T15:06:13;12.25;;;6.03;;
5416;SDS011;2731;50.754;12.990;2023-03-11T15:08:49;12.68;;;5.55;;
5416;SDS011;2731;50.754;12.990;2023-03-11T15:11:23;8.52;;;5.43;;
5416;SDS011;2731;50.754;12.990;2023-03-11T15:14:27;9.57;;;5.35;;
5416;SDS011;2731;50.754;12.990;2023-03-11T15:17:15;12.65;;;5.40;;
5416;SDS011;2731;50.754;12.990;2023-03-11T15:19:42;9.85;;;4.38;;
5416;SDS011;2731;50.754;12.990;2023-03-11T15:22:26;8.25;;;4.22;;
5416;SDS011;2731;50.754;12.990;2023-03-11T15:24:57;9.88;;;4.68;;
5416;SDS011;2731;50.754;12.990;2023-03-11T15:27:31;7.30;;;4.80;;
5416;SDS011;2731;50.754;12.990;2023-03-11T15:30:01;6.80;;;4.78;;
5416;SDS011;2731;50.754;12.990;2023-03-11T15:32:37;9.95;;;5.35;;
5416;SDS011;2731;50.754;12.990;2023-03-11T15:37:36;11.93;;;6.57;;
5416;SDS011;2731;50.754;12.990;2023-03-11T15:40:24;8.68;;;5.88;;
5416;SDS011;2731;50.754;12.990;2023-03-11T15:43:46;10.30;;;5.32;;
5416;SDS011;2731;50.754;12.990;2023-03-11T15:46:16;12.48;;;5.55;;
5416;SDS011;2731;50.754;12.990;2023-03-11T15:48:43;8.48;;;5.30;;
5416;SDS011;2731;50.754;12.990;2023-03-11T15:51:18;11.02;;;6.25;;
5416;SDS011;2731;50.754;12.990;2023-03-11T15:53:46;10.90;;;5.03;;
5416;SDS011;2731;50.754;12.990;2023-03-11T15:56:15;8.15;;;4.38;;
5416;SDS011;2731;50.754;12.990;2023-03-11T15:58:45;11.80;;;5.18;;
5416;SDS011;2731;50.754;12.990;2023-03-11T16:01:12;12.30;;;5.20;;
5416;SDS011;2731;50.754;12.990;2023-03-11T16:03:39;9.13;;;5.32;;
5416;SDS011;2731;50.754;12.990;2023-03-11T16:06:07;8.98;;;5.00;;
5416;SDS011;2731;50.754;12.990;2023-03-11T16:08:34;15.50;;;5.40;;
5416;SDS011;2731;50.754;12.990;2023-03-11T16:11:01;9.73;;;4.93;;
5416;SDS011;2731;50.754;12.990;2023-03-11T16:13:33;9.48;;;5.03;;
5416;SDS011;2731;50.754;12.990;2023-03-11T16:16:00;7.50;;;4.72;;
5416;SDS011;2731;50.754;12.990;2023-03-11T16:18:28;10.85;;;5.80;;
5416;SDS011;2731;50.754;12.990;2023-03-11T16:20:54;9.70;;;4.63;;
5416;SDS011;2731;50.754;12.990;2023-03-11T16:23:25;12.07;;;5.57;;
5416;SDS011;2731;50.754;12.990;2023-03-11T16:25:54;11.90;;;4.90;;
5416;SDS011;2731;50.754;12.990;2023-03-11T16:28:21;9.35;;;5.03;;
5416;SDS011;2731;50.754;12.990;2023-03-11T16:30:49;11.00;;;5.63;;
5416;SDS011;2731;50.754;12.990;2023-03-11T16:33:16;9.25;;;4.85;;
5416;SDS011;2731;50.754;12.990;2023-03-11T16:35:44;8.98;;;5.07;;
5416;SDS011;2731;50.754;12.990;2023-03-11T16:38:14;7.68;;;4.80;;
5416;SDS011;2731;50.754;12.990;2023-03-11T16:40:44;16.92;;;5.70;;
5416;SDS011;2731;50.754;12.990;2023-03-11T16:43:14;9.07;;;4.82;;
5416;SDS011;2731;50.754;12.990;2023-03-11T16:45:42;6.60;;;4.50;;
5416;SDS011;2731;50.754;12.990;2023-03-11T16:48:09;10.85;;;5.65;;
5416;SDS011;2731;50.754;12.990;2023-03-11T16:50:37;10.57;;;5.72;;
5416;SDS011;2731;50.754;12.990;2023-03-11T16:53:05;8.88;;;5.05;;
5416;SDS011;2731;50.754;12.990;2023-03-11T16:55:32;11.60;;;6.03;;
5416;SDS011;2731;50.754;12.990;2023-03-11T16:58:00;7.65;;;4.95;;
5416;SDS011;2731;50.754;12.990;2023-03-11T17:00:28;10.98;;;5.22;;
5416;SDS011;2731;50.754;12.990;2023-03-11T17:02:56;8.60;;;5.30;;
5416;SDS011;2731;50.754;12.990;2023-03-11T17:05:22;10.43;;;5.38;;
5416;SDS011;2731;50.754;12.990;2023-03-11T17:07:57;7.53;;;4.82;;
5416;SDS011;2731;50.754;12.990;2023-03-11T17:10:40;10.10;;;6.03;;
5416;SDS011;2731;50.754;12.990;2023-03-11T17:13:10;9.88;;;5.47;;
5416;SDS011;2731;50.754;12.990;2023-03-11T17:15:37;7.60;;;4.90;;
5416;SDS011;2731;50.754;12.990;2023-03-11T17:18:12;9.80;;;5.38;;
5416;SDS011;2731;50.754;12.990;2023-03-11T17:20:40;13.80;;;5.30;;
5416;SDS011;2731;50.754;12.990;2023-03-11T17:23:28;9.50;;;5.28;;